createdAt,value
2023-03-23T15:58:43.161Z,19.25
2023-03-23T16:01:28.649Z,19.18
2023-03-23T16:04:08.003Z,19.12
2023-03-23T16:06:37.902Z,19.08
2023-03-23T16:09:07.620Z,19.04
2023-03-23T16:11:35.518Z,19.00
2023-03-23T16:14:03.111Z,18.96
2023-03-23T16:16:44.286Z,18.91
2023-03-23T16:19:16.895Z,18.84
2023-03-23T16:21:44.731Z,18.81
2023-03-23T16:24:12.466Z,18.71
2023-03-23T16:26:41.023Z,18.69
2023-03-23T16:29:33.647Z,18.66
2023-03-23T16:32:05.319Z,18.60
2023-03-23T16:34:34.457Z,18.55
2023-03-23T16:37:03.340Z,18.53
2023-03-23T16:39:30.740Z,18.48
2023-03-23T16:41:58.658Z,18.44
2023-03-23T16:44:26.157Z,18.42
2023-03-23T16:46:53.737Z,18.39
2023-03-23T16:49:20.947Z,18.34
2023-03-23T16:51:48.607Z,18.29
2023-03-23T16:54:16.260Z,18.24
2023-03-23T16:56:47.029Z,18.18
2023-03-23T16:59:14.972Z,18.13
2023-03-23T17:01:43.431Z,18.09
2023-03-23T17:04:12.032Z,18.03
2023-03-23T17:06:39.642Z,17.99
2023-03-23T17:09:07.861Z,17.92
2023-03-23T17:11:35.854Z,17.86
2023-03-23T17:14:03.647Z,17.82
2023-03-23T17:16:31.397Z,17.78
2023-03-23T17:18:58.686Z,17.73
2023-03-23T17:21:27.072Z,17.70
2023-03-23T17:23:54.876Z,17.66
2023-03-23T17:26:28.902Z,17.61
2023-03-23T17:28:56.270Z,17.55
2023-03-23T17:31:24.175Z,17.52
2023-03-23T17:33:52.800Z,17.46
2023-03-23T17:36:21.032Z,17.43
2023-03-23T17:38:48.312Z,17.39
2023-03-23T17:41:16.326Z,17.34
2023-03-23T17:43:43.602Z,17.30
2023-03-23T17:46:11.577Z,17.27
2023-03-23T17:48:39.287Z,17.24
2023-03-23T17:51:07.421Z,17.21
2023-03-23T17:53:35.983Z,17.19
2023-03-23T17:56:06.063Z,17.16
2023-03-23T17:58:35.516Z,17.11
2023-03-23T18:01:04.479Z,17.05
2023-03-23T18:03:32.270Z,17.01
2023-03-23T18:06:08.338Z,16.96
2023-03-23T18:08:37.695Z,16.95
2023-03-23T18:11:06.190Z,16.93
2023-03-23T18:13:36.500Z,16.91
2023-03-23T18:16:06.264Z,16.87
2023-03-23T18:18:34.156Z,16.86
2023-03-23T18:21:08.246Z,16.84
2023-03-23T18:23:46.028Z,16.81
2023-03-23T18:26:22.081Z,16.78
2023-03-23T18:28:52.443Z,16.75
2023-03-23T18:31:21.378Z,16.71
2023-03-23T18:33:51.163Z,16.66
2023-03-23T18:36:27.555Z,16.64
2023-03-23T18:38:57.658Z,16.59
2023-03-23T18:41:26.108Z,16.53
2023-03-23T18:43:53.956Z,16.49
2023-03-23T18:46:23.066Z,16.45
2023-03-23T18:48:50.576Z,16.41
2023-03-23T18:51:18.350Z,16.37
2023-03-23T18:53:45.566Z,16.34
2023-03-23T18:56:17.395Z,16.31
2023-03-23T18:58:45.732Z,16.28
2023-03-23T19:01:17.804Z,16.27
2023-03-23T19:03:46.516Z,16.23
2023-03-23T19:06:21.932Z,16.24
2023-03-23T19:08:52.076Z,16.22
2023-03-23T19:11:22.682Z,16.21
2023-03-23T19:14:00.587Z,16.19
2023-03-23T19:16:35.786Z,16.20
2023-03-23T19:19:05.588Z,16.15
2023-03-23T19:21:33.217Z,16.13
2023-03-23T19:24:02.082Z,16.11
2023-03-23T19:26:38.288Z,16.09
2023-03-23T19:31:39.891Z,16.05
2023-03-23T19:34:08.845Z,16.04
2023-03-23T19:36:37.754Z,16.02
2023-03-23T19:39:07.187Z,16.00
2023-03-23T19:41:36.397Z,15.97
2023-03-23T19:44:05.260Z,15.96
2023-03-23T19:46:33.391Z,15.93
2023-03-23T19:49:01.842Z,15.91
2023-03-23T19:51:30.687Z,15.87
2023-03-23T19:53:58.964Z,15.84
2023-03-23T19:56:30.097Z,15.82
2023-03-23T19:58:57.751Z,15.77
2023-03-23T20:01:26.314Z,15.74
2023-03-23T20:03:56.393Z,15.71
2023-03-23T20:06:29.296Z,15.68
2023-03-23T20:09:00.177Z,15.64
2023-03-23T20:11:29.998Z,15.59
2023-03-23T20:13:58.831Z,15.57
2023-03-23T20:16:28.974Z,15.54
2023-03-23T20:18:59.972Z,15.51
2023-03-23T20:21:29.558Z,15.47
2023-03-23T20:23:59.015Z,15.47
2023-03-23T20:26:38.090Z,15.45
2023-03-23T20:29:12.859Z,15.43
2023-03-23T20:31:42.150Z,15.43
2023-03-23T20:34:13.976Z,15.40
2023-03-23T20:36:47.649Z,15.39
2023-03-23T20:39:23.596Z,15.41
2023-03-23T20:41:55.542Z,15.42
2023-03-23T20:44:26.400Z,15.42
2023-03-23T20:46:54.933Z,15.41
2023-03-23T20:49:24.329Z,15.41
2023-03-23T20:51:53.750Z,15.41
2023-03-23T20:54:24.788Z,15.42
2023-03-23T20:56:56.156Z,15.42
2023-03-23T20:59:28.349Z,15.41
2023-03-23T21:01:56.633Z,15.41
2023-03-23T21:04:27.673Z,15.41
2023-03-23T21:06:56.819Z,15.40
2023-03-23T21:09:25.652Z,15.40
2023-03-23T21:11:55.468Z,15.38
2023-03-23T21:14:22.973Z,15.40
2023-03-23T21:16:50.697Z,15.38
2023-03-23T21:19:20.560Z,15.38
2023-03-23T21:22:01.539Z,15.37
2023-03-23T21:24:31.525Z,15.36
2023-03-23T21:27:03.183Z,15.36
2023-03-23T21:29:31.184Z,15.37
2023-03-23T21:34:30.767Z,15.36
2023-03-23T21:37:11.267Z,15.38
2023-03-23T21:39:42.071Z,15.39
2023-03-23T21:42:13.758Z,15.38
2023-03-23T21:44:42.925Z,15.37
2023-03-23T21:47:12.953Z,15.35
2023-03-23T21:49:40.744Z,15.33
2023-03-23T21:52:09.379Z,15.32
2023-03-23T21:54:37.087Z,15.31
2023-03-23T21:57:05.085Z,15.29
2023-03-23T21:59:32.643Z,15.26
2023-03-23T22:02:02.145Z,15.26
2023-03-23T22:04:29.810Z,15.23
2023-03-23T22:06:58.584Z,15.23
2023-03-23T22:09:26.452Z,15.21
2023-03-23T22:11:55.009Z,15.19
2023-03-23T22:14:23.040Z,15.17
2023-03-23T22:16:50.981Z,15.17
2023-03-23T22:19:21.610Z,15.17
2023-03-23T22:21:49.445Z,15.17
2023-03-23T22:24:17.734Z,15.15
2023-03-23T22:26:46.208Z,15.14
2023-03-23T22:29:17.260Z,15.12
2023-03-23T22:31:46.295Z,15.10
2023-03-23T22:34:14.030Z,15.08
2023-03-23T22:36:42.384Z,15.11
2023-03-23T22:39:10.551Z,15.12
2023-03-23T22:41:42.130Z,15.11
2023-03-23T22:44:23.984Z,15.11
2023-03-23T22:46:51.857Z,15.08
2023-03-23T22:49:19.500Z,15.07
2023-03-23T22:51:47.777Z,15.07
2023-03-23T22:54:15.755Z,15.07
2023-03-23T22:56:43.639Z,15.07
2023-03-23T22:59:12.281Z,15.08
2023-03-23T23:01:40.904Z,15.06
2023-03-23T23:04:08.610Z,15.06
2023-03-23T23:06:36.767Z,15.04
2023-03-23T23:09:04.957Z,15.03
2023-03-23T23:11:33.289Z,15.03
2023-03-23T23:14:01.525Z,15.01
2023-03-23T23:16:30.289Z,15.01
2023-03-23T23:18:57.979Z,15.00
2023-03-23T23:21:26.964Z,14.99
2023-03-23T23:23:54.681Z,14.99
2023-03-23T23:26:23.331Z,14.99
2023-03-23T23:28:51.293Z,14.98
2023-03-23T23:31:26.171Z,14.97
2023-03-23T23:33:57.368Z,14.95
2023-03-23T23:36:30.146Z,14.95
2023-03-23T23:39:00.856Z,14.92
2023-03-23T23:41:36.136Z,14.92
2023-03-23T23:44:04.398Z,14.90
2023-03-23T23:46:32.734Z,14.89
2023-03-23T23:49:01.137Z,14.89
2023-03-23T23:51:30.119Z,14.87
2023-03-23T23:53:59.315Z,14.86
2023-03-23T23:56:28.647Z,14.85
2023-03-23T23:58:56.642Z,14.85
